createdAt,value
2023-03-08T00:00:35.291Z,6.51
2023-03-08T00:03:03.211Z,6.61
2023-03-08T00:05:30.072Z,6.59
2023-03-08T00:07:56.915Z,6.57
2023-03-08T00:10:24.261Z,6.62
2023-03-08T00:12:51.084Z,6.65
2023-03-08T00:15:18.997Z,6.66
2023-03-08T00:17:45.854Z,6.69
2023-03-08T00:20:13.813Z,6.64
2023-03-08T00:22:42.453Z,6.56
2023-03-08T00:25:11.342Z,6.68
2023-03-08T00:27:38.757Z,6.77
2023-03-08T00:30:06.622Z,6.68
2023-03-08T00:32:33.565Z,6.53
2023-03-08T00:35:00.461Z,6.65
2023-03-08T00:37:27.269Z,6.69
2023-03-08T00:39:54.991Z,6.81
2023-03-08T00:42:22.242Z,6.86
2023-03-08T00:44:49.271Z,6.81
2023-03-08T00:47:16.359Z,6.78
2023-03-08T00:49:44.018Z,6.84
2023-03-08T00:52:11.080Z,6.87
2023-03-08T00:54:38.596Z,6.74
2023-03-08T00:57:05.521Z,6.84
2023-03-08T00:59:32.348Z,6.85
2023-03-08T01:02:00.835Z,6.71
2023-03-08T01:04:27.727Z,6.85
2023-03-08T01:06:54.574Z,6.62
2023-03-08T01:09:21.433Z,6.74
2023-03-08T01:11:48.272Z,6.65
2023-03-08T01:14:15.134Z,6.73
2023-03-08T01:16:42.700Z,6.60
2023-03-08T01:19:11.408Z,6.57
2023-03-08T01:21:38.294Z,6.48
2023-03-08T01:24:05.856Z,6.37
2023-03-08T01:26:32.783Z,6.59
2023-03-08T01:28:59.610Z,6.61
2023-03-08T01:31:31.631Z,6.51
2023-03-08T01:33:58.840Z,6.58
2023-03-08T01:36:27.967Z,6.64
2023-03-08T01:38:55.255Z,6.67
2023-03-08T01:41:29.454Z,6.50
2023-03-08T01:43:56.733Z,6.47
2023-03-08T01:46:35.257Z,6.47
2023-03-08T01:49:06.565Z,6.69
2023-03-08T01:52:07.185Z,6.61
2023-03-08T01:54:46.906Z,6.59
2023-03-08T01:57:19.129Z,6.78
2023-03-08T01:59:49.071Z,6.66
2023-03-08T02:02:21.850Z,6.42
2023-03-08T02:04:48.680Z,6.56
2023-03-08T02:07:15.543Z,6.60
2023-03-08T02:09:42.667Z,6.59
2023-03-08T02:12:13.137Z,6.65
2023-03-08T02:14:42.758Z,6.62
2023-03-08T02:17:10.013Z,6.57
2023-03-08T02:19:55.036Z,6.65
2023-03-08T02:22:22.378Z,6.66
2023-03-08T02:24:49.190Z,6.37
2023-03-08T02:27:24.934Z,6.67
2023-03-08T02:29:52.056Z,6.70
2023-03-08T02:32:19.026Z,6.61
2023-03-08T02:34:46.065Z,6.70
2023-03-08T02:37:12.916Z,6.67
2023-03-08T02:39:39.781Z,6.61
2023-03-08T02:42:06.834Z,6.77
2023-03-08T02:44:33.710Z,6.78
2023-03-08T02:47:00.562Z,6.64
2023-03-08T02:49:27.384Z,6.67
2023-03-08T02:51:54.218Z,6.60
2023-03-08T02:54:21.060Z,6.78
2023-03-08T02:56:47.910Z,6.64
2023-03-08T02:59:14.769Z,6.74
2023-03-08T03:01:41.759Z,6.74
2023-03-08T03:04:08.659Z,6.73
2023-03-08T03:06:35.577Z,6.62
2023-03-08T03:09:08.049Z,6.68
2023-03-08T03:11:34.967Z,6.62
2023-03-08T03:14:02.387Z,6.69
2023-03-08T03:16:29.260Z,6.68
2023-03-08T03:18:56.890Z,6.33
2023-03-08T03:21:24.843Z,6.27
2023-03-08T03:23:51.812Z,6.41
2023-03-08T03:26:21.777Z,6.41
2023-03-08T03:28:49.594Z,6.52
2023-03-08T03:31:22.464Z,6.53
2023-03-08T03:33:49.935Z,6.60
2023-03-08T03:36:20.843Z,6.62
2023-03-08T03:38:49.048Z,6.56
2023-03-08T03:41:20.745Z,6.64
2023-03-08T03:43:49.228Z,6.54
2023-03-08T03:46:18.960Z,6.62
2023-03-08T03:48:46.519Z,6.62
2023-03-08T03:51:16.897Z,6.57
2023-03-08T03:53:44.073Z,6.62
2023-03-08T03:56:19.639Z,6.64
2023-03-08T03:58:47.320Z,6.63
2023-03-08T04:01:29.638Z,6.59
2023-03-08T04:03:57.392Z,6.64
2023-03-08T04:06:30.317Z,6.61
2023-03-08T04:09:04.573Z,6.62
2023-03-08T04:11:38.123Z,6.43
2023-03-08T04:14:06.098Z,6.62
2023-03-08T04:16:35.881Z,6.65
2023-03-08T04:19:08.183Z,6.64
2023-03-08T04:21:36.161Z,6.56
2023-03-08T04:24:03.612Z,6.58
2023-03-08T04:26:30.570Z,6.48
2023-03-08T04:28:57.658Z,6.43
2023-03-08T04:31:28.477Z,6.41
2023-03-08T04:33:56.144Z,6.36
2023-03-08T04:36:23.406Z,6.38
2023-03-08T04:38:51.680Z,6.20
2023-03-08T04:41:19.259Z,6.28
2023-03-08T04:43:51.262Z,6.22
2023-03-08T04:46:21.703Z,6.33
2023-03-08T04:48:49.239Z,6.46
2023-03-08T04:51:16.841Z,6.51
2023-03-08T04:53:45.417Z,6.24
2023-03-08T04:56:14.314Z,6.45
2023-03-08T04:58:41.892Z,6.48
2023-03-08T05:01:23.013Z,6.51
2023-03-08T05:03:52.863Z,6.47
2023-03-08T05:06:22.675Z,6.44
2023-03-08T05:08:49.623Z,6.21
2023-03-08T05:11:23.941Z,6.39
2023-03-08T05:13:53.523Z,6.25
2023-03-08T05:16:20.882Z,6.50
2023-03-08T05:18:47.890Z,6.35
2023-03-08T05:21:18.474Z,6.53
2023-03-08T05:23:45.456Z,6.49
2023-03-08T05:26:15.304Z,6.57
2023-03-08T05:28:42.800Z,6.51
2023-03-08T05:31:15.129Z,6.37
2023-03-08T05:33:44.202Z,6.01
2023-03-08T05:36:11.402Z,6.35
2023-03-08T05:38:38.364Z,6.31
2023-03-08T05:41:08.604Z,6.41
2023-03-08T05:43:36.039Z,6.45
2023-03-08T05:46:08.133Z,6.54
2023-03-08T05:48:35.860Z,6.50
2023-03-08T05:51:15.630Z,6.58
2023-03-08T05:53:43.069Z,6.62
2023-03-08T05:56:20.749Z,6.60
2023-03-08T05:58:48.438Z,6.63
2023-03-08T06:01:26.191Z,6.60
2023-03-08T06:03:56.262Z,6.62
2023-03-08T06:06:27.815Z,6.68
2023-03-08T06:08:56.282Z,6.68
2023-03-08T06:11:23.846Z,6.60
2023-03-08T06:13:50.835Z,6.69
2023-03-08T06:16:17.870Z,6.70
2023-03-08T06:18:44.792Z,6.60
2023-03-08T06:21:15.704Z,6.58
2023-03-08T06:23:43.446Z,6.72
2023-03-08T06:26:11.652Z,6.74
2023-03-08T06:28:41.990Z,6.66
2023-03-08T06:31:15.186Z,6.64
2023-03-08T06:33:42.695Z,6.67
2023-03-08T06:36:16.706Z,6.72
2023-03-08T06:38:43.859Z,6.75
2023-03-08T06:41:13.463Z,6.74
2023-03-08T06:43:41.650Z,6.66
2023-03-08T06:46:16.894Z,6.75
2023-03-08T06:48:44.848Z,6.74
2023-03-08T06:51:11.725Z,6.72
2023-03-08T06:53:38.875Z,6.77
2023-03-08T06:56:08.573Z,6.77
2023-03-08T06:58:36.986Z,6.69
2023-03-08T07:01:05.599Z,6.74
2023-03-08T07:03:33.761Z,6.80
2023-03-08T07:06:07.254Z,6.70
2023-03-08T07:08:35.044Z,6.78
2023-03-08T07:11:02.353Z,6.66
2023-03-08T07:13:29.823Z,6.80
2023-03-08T07:15:57.495Z,6.81
2023-03-08T07:18:24.840Z,6.77
2023-03-08T07:20:55.585Z,6.65
2023-03-08T07:23:22.889Z,6.83
2023-03-08T07:25:49.872Z,6.83
2023-03-08T07:28:16.786Z,6.83
2023-03-08T07:30:53.553Z,6.81
2023-03-08T07:33:21.828Z,6.68
2023-03-08T07:35:49.123Z,6.88
2023-03-08T07:38:17.111Z,6.92
2023-03-08T07:40:44.391Z,6.95
2023-03-08T07:43:11.676Z,6.92
2023-03-08T07:45:42.044Z,6.89
2023-03-08T07:48:08.849Z,6.98
2023-03-08T07:50:35.769Z,7.00
2023-03-08T07:53:04.353Z,6.94
2023-03-08T07:55:31.349Z,7.02
2023-03-08T07:57:58.226Z,6.95
2023-03-08T08:00:25.404Z,7.02
2023-03-08T08:02:54.123Z,7.00
2023-03-08T08:05:22.143Z,7.06
2023-03-08T08:07:49.805Z,6.99
2023-03-08T08:10:17.210Z,7.08
2023-03-08T08:12:44.068Z,7.01
2023-03-08T08:15:11.558Z,7.05
2023-03-08T08:17:38.396Z,7.09
2023-03-08T08:20:08.119Z,7.09
2023-03-08T08:22:37.120Z,7.04
2023-03-08T08:25:08.727Z,7.15
2023-03-08T08:27:36.495Z,7.10
2023-03-08T08:30:05.962Z,7.13
2023-03-08T08:32:35.258Z,7.19
2023-03-08T08:35:02.313Z,7.14
2023-03-08T08:37:31.148Z,7.23
2023-03-08T08:39:58.373Z,7.14
2023-03-08T08:42:26.086Z,7.17
2023-03-08T08:44:53.534Z,7.28
2023-03-08T08:47:20.320Z,7.19
2023-03-08T08:49:47.282Z,7.01
2023-03-08T08:52:14.098Z,7.20
2023-03-08T08:54:41.035Z,7.26
2023-03-08T08:57:07.893Z,7.26
2023-03-08T08:59:34.900Z,7.16
2023-03-08T09:02:02.590Z,7.29
2023-03-08T09:04:29.590Z,7.33
2023-03-08T09:06:56.643Z,7.21
2023-03-08T09:09:23.556Z,7.30
2023-03-08T09:11:55.152Z,7.13
2023-03-08T09:14:22.694Z,7.19
2023-03-08T09:16:49.675Z,7.26
2023-03-08T09:19:16.612Z,7.20
2023-03-08T09:21:43.664Z,7.32
2023-03-08T09:24:12.069Z,7.26
2023-03-08T09:26:39.374Z,7.29
2023-03-08T09:29:07.417Z,7.40
2023-03-08T09:31:37.491Z,7.45
2023-03-08T09:34:08.885Z,7.48
2023-03-08T09:36:39.455Z,7.46
2023-03-08T09:39:08.931Z,7.52
2023-03-08T09:41:44.568Z,7.51
2023-03-08T09:44:32.392Z,7.54
2023-03-08T09:47:13.685Z,7.47
2023-03-08T09:49:45.483Z,7.40
2023-03-08T09:52:24.974Z,7.55
2023-03-08T09:54:52.775Z,7.56
2023-03-08T09:57:42.397Z,7.57
2023-03-08T10:00:31.700Z,7.55
2023-03-08T10:03:26.555Z,7.57
2023-03-08T10:06:22.946Z,7.61
2023-03-08T10:09:29.290Z,7.63
2023-03-08T10:12:13.378Z,7.50
2023-03-08T10:14:49.912Z,7.51
2023-03-08T10:17:30.588Z,7.26
2023-03-08T10:20:14.888Z,7.51
2023-03-08T10:22:42.822Z,7.69
2023-03-08T10:25:34.020Z,7.66
2023-03-08T10:28:04.470Z,7.65
2023-03-08T10:30:52.047Z,7.67
2023-03-08T10:33:22.336Z,7.68
2023-03-08T10:36:02.391Z,7.66
2023-03-08T10:38:33.381Z,7.66
2023-03-08T10:41:15.793Z,7.78
2023-03-08T10:43:50.110Z,7.83
2023-03-08T10:46:23.792Z,7.82
2023-03-08T10:48:51.389Z,7.84
2023-03-08T10:51:20.822Z,7.90
2023-03-08T10:54:03.192Z,7.94
2023-03-08T10:56:57.908Z,7.98
2023-03-08T10:59:33.003Z,8.03
2023-03-08T11:02:18.560Z,8.09
2023-03-08T11:04:55.964Z,7.95
2023-03-08T11:07:29.117Z,7.95
2023-03-08T11:10:33.986Z,8.15
2023-03-08T11:13:28.567Z,8.31
2023-03-08T11:16:23.081Z,8.47
2023-03-08T11:19:36.700Z,8.47
2023-03-08T11:22:25.025Z,8.79
2023-03-08T11:25:14.486Z,8.93
2023-03-08T11:28:31.293Z,9.09
2023-03-08T11:31:26.255Z,9.26
2023-03-08T11:34:39.664Z,9.37
2023-03-08T11:37:53.566Z,9.43
2023-03-08T11:40:26.831Z,9.45
2023-03-08T11:43:02.586Z,10.01
2023-03-08T11:46:10.545Z,10.13
2023-03-08T11:48:55.130Z,10.37
2023-03-08T11:51:51.953Z,10.20
2023-03-08T11:54:37.265Z,10.38
2023-03-08T11:57:10.467Z,10.40
2023-03-08T12:00:06.672Z,10.62
2023-03-08T12:02:37.863Z,10.77
2023-03-08T12:05:55.076Z,10.74
2023-03-08T12:08:43.778Z,10.92
2023-03-08T12:11:23.849Z,10.87
2023-03-08T12:14:01.435Z,10.78
2023-03-08T12:16:48.676Z,11.01
2023-03-08T12:19:54.849Z,11.11
2023-03-08T12:23:01.134Z,11.21
2023-03-08T12:25:35.781Z,11.27
2023-03-08T12:28:20.679Z,11.08
2023-03-08T12:31:27.871Z,11.25
2023-03-08T12:33:58.883Z,11.31
2023-03-08T12:36:41.528Z,11.31
2023-03-08T12:39:34.108Z,11.58
2023-03-08T12:42:10.247Z,11.73
2023-03-08T12:44:38.942Z,11.65
2023-03-08T12:47:11.780Z,11.79
2023-03-08T12:49:45.280Z,11.81
2023-03-08T12:52:18.244Z,11.87
2023-03-08T12:54:59.310Z,11.82
2023-03-08T12:57:32.451Z,11.81
2023-03-08T13:00:20.853Z,11.88
2023-03-08T13:03:18.520Z,11.89
2023-03-08T13:05:47.339Z,12.06
2023-03-08T13:08:14.098Z,12.10
2023-03-08T13:11:05.923Z,12.09
2023-03-08T13:13:57.276Z,12.15
2023-03-08T13:16:38.991Z,12.26
2023-03-08T13:19:19.205Z,12.09
2023-03-08T13:21:56.757Z,12.41
2023-03-08T13:24:39.030Z,12.18
2023-03-08T13:27:57.106Z,12.44
2023-03-08T13:30:49.597Z,12.38
2023-03-08T13:33:28.790Z,12.41
2023-03-08T13:36:00.575Z,12.38
2023-03-08T13:38:32.520Z,12.48
2023-03-08T13:41:00.641Z,12.51
2023-03-08T13:43:31.200Z,12.60
2023-03-08T13:46:04.939Z,12.61
2023-03-08T13:48:35.599Z,12.51
2023-03-08T13:51:03.778Z,12.50
2023-03-08T13:53:37.279Z,12.48
2023-03-08T13:56:06.716Z,12.64
2023-03-08T13:58:50.595Z,12.63
2023-03-08T14:01:24.200Z,12.47
2023-03-08T14:03:54.406Z,12.73
2023-03-08T14:06:30.103Z,12.69
2023-03-08T14:09:04.495Z,12.61
2023-03-08T14:11:39.068Z,12.69
2023-03-08T14:14:14.251Z,12.76
2023-03-08T14:16:44.292Z,12.77
2023-03-08T14:19:25.385Z,12.74
2023-03-08T14:21:58.090Z,13.01
2023-03-08T14:24:31.465Z,13.21
2023-03-08T14:27:14.860Z,13.28
2023-03-08T14:29:44.700Z,13.30
2023-03-08T14:32:11.725Z,13.33
2023-03-08T14:34:47.487Z,13.32
2023-03-08T14:37:31.517Z,13.44
2023-03-08T14:40:27.554Z,13.45
2023-03-08T14:42:57.849Z,13.37
2023-03-08T14:45:40.457Z,13.42
2023-03-08T14:48:30.456Z,13.05
2023-03-08T14:51:00.366Z,13.27
2023-03-08T14:53:39.367Z,13.31
2023-03-08T14:56:15.965Z,13.17
2023-03-08T14:58:48.945Z,13.26
2023-03-08T15:01:25.376Z,13.33
2023-03-08T15:03:52.217Z,13.42
2023-03-08T15:06:25.960Z,13.45
2023-03-08T15:08:53.504Z,13.43
2023-03-08T15:11:20.341Z,13.32
2023-03-08T15:13:47.238Z,13.40
2023-03-08T15:16:14.668Z,13.42
2023-03-08T15:18:41.977Z,13.45
2023-03-08T15:21:16.803Z,13.46
2023-03-08T15:23:44.480Z,13.38
2023-03-08T15:26:20.867Z,13.30
2023-03-08T15:28:47.747Z,13.32
2023-03-08T15:31:14.654Z,13.34
2023-03-08T15:33:41.484Z,13.42
2023-03-08T15:36:14.997Z,13.35
2023-03-08T15:38:42.194Z,13.44
2023-03-08T15:41:14.621Z,13.39
2023-03-08T15:43:41.826Z,13.34
2023-03-08T15:46:15.899Z,13.32
2023-03-08T15:48:45.518Z,13.35
2023-03-08T15:51:19.281Z,13.35
2023-03-08T15:53:47.332Z,13.50
2023-03-08T15:56:14.840Z,13.35
2023-03-08T15:58:42.242Z,13.43
2023-03-08T16:01:09.324Z,13.44
2023-03-08T16:03:36.246Z,13.42
2023-03-08T16:06:09.007Z,13.34
2023-03-08T16:08:36.589Z,13.18
2023-03-08T16:11:09.018Z,13.34
2023-03-08T16:13:35.926Z,13.27
2023-03-08T16:16:04.671Z,13.45
2023-03-08T16:18:32.934Z,13.44
2023-03-08T16:21:00.139Z,13.46
2023-03-08T16:23:27.383Z,13.41
2023-03-08T16:26:14.835Z,13.39
2023-03-08T16:28:43.748Z,13.38
2023-03-08T16:31:10.634Z,13.44
2023-03-08T16:33:37.552Z,13.26
2023-03-08T16:36:04.513Z,13.34
2023-03-08T16:38:31.514Z,13.37
2023-03-08T16:41:12.295Z,13.37
2023-03-08T16:43:48.005Z,13.37
2023-03-08T16:46:21.549Z,13.31
2023-03-08T16:48:50.310Z,13.31
2023-03-08T16:51:20.966Z,13.16
2023-03-08T16:53:48.803Z,12.97
2023-03-08T16:56:28.064Z,13.16
2023-03-08T16:58:59.026Z,13.13
2023-03-08T17:01:26.618Z,13.04
2023-03-08T17:03:53.620Z,13.13
2023-03-08T17:06:24.889Z,12.94
2023-03-08T17:08:52.334Z,12.86
2023-03-08T17:11:23.947Z,12.85
2023-03-08T17:13:53.555Z,12.65
2023-03-08T17:16:24.330Z,12.78
2023-03-08T17:18:52.204Z,12.67
2023-03-08T17:21:21.059Z,12.66
2023-03-08T17:23:49.932Z,12.57
2023-03-08T17:26:19.400Z,12.80
2023-03-08T17:28:46.567Z,12.74
2023-03-08T17:31:16.920Z,12.71
2023-03-08T17:33:44.809Z,12.63
2023-03-08T17:36:13.818Z,12.73
2023-03-08T17:38:41.181Z,12.59
2023-03-08T17:41:12.257Z,12.55
2023-03-08T17:43:41.167Z,12.57
2023-03-08T17:46:21.972Z,12.59
2023-03-08T17:48:50.654Z,12.31
2023-03-08T17:51:22.023Z,12.39
2023-03-08T17:53:49.745Z,12.40
2023-03-08T17:56:21.256Z,12.44
2023-03-08T17:58:49.225Z,12.33
2023-03-08T18:01:18.602Z,12.38
2023-03-08T18:03:46.647Z,12.15
2023-03-08T18:06:26.898Z,12.15
2023-03-08T18:08:54.119Z,12.09
2023-03-08T18:11:21.468Z,12.11
2023-03-08T18:13:48.845Z,12.16
2023-03-08T18:16:15.726Z,12.18
2023-03-08T18:18:42.621Z,12.14
2023-03-08T18:21:13.933Z,12.06
2023-03-08T18:23:43.133Z,12.16
2023-03-08T18:26:13.604Z,12.22
2023-03-08T18:28:41.230Z,12.30
2023-03-08T18:31:10.811Z,12.18
2023-03-08T18:33:37.787Z,12.09
2023-03-08T18:36:05.122Z,12.32
2023-03-08T18:38:32.022Z,12.25
2023-03-08T18:40:58.961Z,12.33
2023-03-08T18:43:26.037Z,12.12
2023-03-08T18:45:55.709Z,12.31
2023-03-08T18:48:24.728Z,12.17
2023-03-08T18:50:51.631Z,12.15
2023-03-08T18:53:18.731Z,12.22
2023-03-08T18:56:00.720Z,12.28
2023-03-08T18:58:27.981Z,12.11
2023-03-08T19:00:58.992Z,12.08
2023-03-08T19:03:27.050Z,11.96
2023-03-08T19:05:54.188Z,11.85
2023-03-08T19:08:22.326Z,11.93
2023-03-08T19:10:49.154Z,11.57
2023-03-08T19:13:15.973Z,11.84
2023-03-08T19:15:42.834Z,12.09
2023-03-08T19:18:10.326Z,12.06
2023-03-08T19:20:39.534Z,11.89
2023-03-08T19:23:07.065Z,11.92
2023-03-08T19:25:56.272Z,11.98
2023-03-08T19:28:23.429Z,12.00
2023-03-08T19:30:50.285Z,12.01
2023-03-08T19:33:29.845Z,11.88
2023-03-08T19:35:57.637Z,11.86
2023-03-08T19:38:24.527Z,11.67
2023-03-08T19:40:51.373Z,11.74
2023-03-08T19:43:18.320Z,11.60
2023-03-08T19:45:49.655Z,11.79
2023-03-08T19:48:16.543Z,11.62
2023-03-08T19:50:46.934Z,11.69
2023-03-08T19:53:13.867Z,11.58
2023-03-08T19:55:54.578Z,11.43
2023-03-08T19:58:24.668Z,11.41
2023-03-08T20:01:01.796Z,11.29
2023-03-08T20:03:28.822Z,11.37
2023-03-08T20:05:55.812Z,11.37
2023-03-08T20:08:23.144Z,11.37
2023-03-08T20:10:50.048Z,11.44
2023-03-08T20:13:16.896Z,11.55
2023-03-08T20:15:43.791Z,11.75
2023-03-08T20:18:10.920Z,11.60
2023-03-08T20:20:37.707Z,11.52
2023-03-08T20:23:05.071Z,11.31
2023-03-08T20:25:32.080Z,11.56
2023-03-08T20:27:58.917Z,11.54
2023-03-08T20:30:25.738Z,11.53
2023-03-08T20:32:53.218Z,11.40
2023-03-08T20:35:21.629Z,11.35
2023-03-08T20:37:49.625Z,11.27
2023-03-08T20:40:16.850Z,11.31
2023-03-08T20:42:43.687Z,11.35
2023-03-08T20:45:10.982Z,11.39
2023-03-08T20:47:37.825Z,11.42
2023-03-08T20:50:05.125Z,11.41
2023-03-08T20:52:31.945Z,11.33
2023-03-08T20:54:58.868Z,11.44
2023-03-08T20:57:25.731Z,11.50
2023-03-08T20:59:52.525Z,11.33
2023-03-08T21:02:19.403Z,11.37
2023-03-08T21:04:46.764Z,11.45
2023-03-08T21:07:13.611Z,11.42
2023-03-08T21:09:40.588Z,11.42
2023-03-08T21:12:07.922Z,11.44
2023-03-08T21:14:34.787Z,11.39
2023-03-08T21:17:01.609Z,11.41
2023-03-08T21:19:28.419Z,11.54
2023-03-08T21:21:55.321Z,11.47
2023-03-08T21:24:22.980Z,11.46
2023-03-08T21:26:50.105Z,11.46
2023-03-08T21:29:19.976Z,11.42
2023-03-08T21:31:50.528Z,11.38
2023-03-08T21:34:18.776Z,11.48
2023-03-08T21:36:45.908Z,11.46
2023-03-08T21:39:13.426Z,11.46
2023-03-08T21:41:44.685Z,11.47
2023-03-08T21:44:19.117Z,11.57
2023-03-08T21:46:46.898Z,11.58
2023-03-08T21:49:23.706Z,11.66
2023-03-08T21:51:52.728Z,11.61
2023-03-08T21:54:21.240Z,11.75
2023-03-08T21:56:48.457Z,11.62
2023-03-08T21:59:16.735Z,11.65
2023-03-08T22:01:48.323Z,11.62
2023-03-08T22:04:17.718Z,11.62
2023-03-08T22:06:44.608Z,11.55
2023-03-08T22:09:11.478Z,11.60
2023-03-08T22:11:38.468Z,11.48
2023-03-08T22:14:06.235Z,11.58
2023-03-08T22:16:37.715Z,11.56
2023-03-08T22:19:05.375Z,11.51
2023-03-08T22:21:36.138Z,11.50
2023-03-08T22:24:02.996Z,11.39
2023-03-08T22:26:31.158Z,11.56
2023-03-08T22:28:58.510Z,11.44
2023-03-08T22:31:27.784Z,11.59
2023-03-08T22:33:54.729Z,11.44
2023-03-08T22:36:22.970Z,11.49
2023-03-08T22:38:49.966Z,11.48
2023-03-08T22:41:23.728Z,11.45
2023-03-08T22:43:51.256Z,11.59
2023-03-08T22:46:25.031Z,11.61
2023-03-08T22:48:53.068Z,11.53
2023-03-08T22:51:22.036Z,11.45
2023-03-08T22:53:49.623Z,11.40
2023-03-08T22:56:26.947Z,11.37
2023-03-08T22:58:54.050Z,11.19
2023-03-08T23:01:23.319Z,11.31
2023-03-08T23:03:55.010Z,11.23
2023-03-08T23:06:21.942Z,11.29
2023-03-08T23:08:48.801Z,11.26
2023-03-08T23:11:15.656Z,11.23
2023-03-08T23:13:42.896Z,11.29
2023-03-08T23:16:13.747Z,11.29
2023-03-08T23:18:41.414Z,11.27
2023-03-08T23:21:14.273Z,11.26
2023-03-08T23:23:41.682Z,11.13
2023-03-08T23:26:12.660Z,11.15
2023-03-08T23:28:39.964Z,11.05
2023-03-08T23:31:22.615Z,11.11
2023-03-08T23:33:50.644Z,11.19
2023-03-08T23:36:21.140Z,11.18
2023-03-08T23:38:48.251Z,11.18
2023-03-08T23:41:15.752Z,11.15
2023-03-08T23:43:43.505Z,11.00
2023-03-08T23:46:17.768Z,10.99
2023-03-08T23:48:46.765Z,11.03
2023-03-08T23:51:19.594Z,11.07
2023-03-08T23:53:52.404Z,11.06
2023-03-08T23:56:30.059Z,10.97
2023-03-08T23:59:01.153Z,11.01
